Bargersville, Indiana
Current Conditions -  °F | °C
As of 5:54 PM on Wednesday 22 Oct 2014 (Local Time) from KIND Reporting Station
Clear Clear  
Wind Chill: 56°   Ceiling: Unl
Heat Index: 56°   Visibility: 10mi
Dew Point: 40°   Wind: 6mph
Humidity: 55%   Direction: 30°NNE
Pressure: 30.25"   Gusts: NA
Location:  39.52°N, 86.17°W
Report Text: KIND 222154Z 03005KT 10SM CLR 13/04 A3025 RMK AO2 SLP247 T01330044
Loading
Personal Weather Stations






























Interactive Weather Map
Tropical Storm Tracking
New forecast layout! Learn more

10-Day Weather Forecast

Advertisements
Track Severe Weather on mobile